KLBB Airport (Lubbock Preston Smith Intl) Information

FAA: LBB - ICAO: KLBB

KLBB Airport Location

State Texas
County Lubbock
City Lubbock
KLBB Airport is 4 miles north of Lubbock, TX.
Latitude 33-39-49.2000N
Longitude 101-49-14.0000W
Elevation 3,282ft

KLBB Airport METARs

METAR KLBB 201753Z 18013KT 10SM FEW150 FEW250 33/13 A2981 RMK AO2 SLP034 T03330128 10339 20233 58012
Altimeter 29.81"
Temperature 33.3°C (91.9°F)
Wind 180° at 13KT
Clouds few at 15,000ft few at 25,000ft
Visibility 10.0mi
Time observed: 2021-06-20T17:53:00Z

KLBB Airport Details

Status Operational
Activation November 1937
Ownership Public
Usage Public
Chart DALLAS-FT WORTH
ATC on-site Yes
Beacon schedule sunset-sunrise
Beacon color clear green

KLBB Airport Contacts

Owner CITY OF LUBBOCK
Owner address PO BOX 2000, LUBBOCK, TX 79457
Owner phone 806-775-3000
Manager WALT & JOANNE BIRCHFIELD
Manager address 565 CR 2636, LOMETA, TX 76853
Manager phone 512-752-4073

KLBB Airport (Lubbock Preston Smith Intl) Radio Frequencies

KLBB (Airport) Radio Frequencies

UNICOM 122.95
Common traffic advisory frequency (CTAF) N/A